Time;durP1;ratioP1;P1;durP2;ratioP2;P2;SDS_P1;SDS_P2;PMS_P1;PMS_P2;Temp;Humidity;BMP_temperature;BMP_pressure;BME280_temperature;BME280_humidity;BME280_pressure;Samples;Min_cycle;Max_cycle;Signal;HPM_P1;HPM_P2
2021/03/06 00:02:09;;;;;;;10.17;4.97;;;2.30;79.40;;;;;;5071150;28;20455;-68
2021/03/06 00:04:34;;;;;;;11.97;4.87;;;2.30;79.60;;;;;;5071481;28;20053;-68
2021/03/06 00:07:00;;;;;;;10.93;5.13;;;2.30;79.80;;;;;;5070301;28;20052;-68
2021/03/06 00:09:26;;;;;;;13.40;5.70;;;2.30;80.30;;;;;;5070942;28;20063;-68
2021/03/06 00:11:51;;;;;;;11.83;4.83;;;2.40;80.30;;;;;;5074577;28;20053;-68
2021/03/06 00:14:17;;;;;;;9.73;4.23;;;2.40;80.20;;;;;;5073918;28;20489;-68
2021/03/06 00:16:43;;;;;;;7.80;3.80;;;2.50;80.30;;;;;;5075010;28;20097;-69
2021/03/06 00:19:08;;;;;;;11.30;4.67;;;2.50;80.50;;;;;;5074911;28;20430;-68
2021/03/06 00:21:34;;;;;;;14.80;4.50;;;2.50;80.60;;;;;;5074414;28;20045;-68
2021/03/06 00:24:00;;;;;;;12.13;3.93;;;2.60;80.60;;;;;;5074697;28;20148;-68
2021/03/06 00:26:25;;;;;;;11.17;4.40;;;2.60;80.60;;;;;;5074565;28;20516;-68
2021/03/06 00:28:51;;;;;;;11.80;4.10;;;2.60;80.80;;;;;;5073709;28;20068;-68
2021/03/06 00:31:17;;;;;;;9.57;3.87;;;2.70;80.70;;;;;;5074665;28;20052;-68
2021/03/06 00:33:42;;;;;;;10.23;4.40;;;2.70;80.90;;;;;;5074488;28;20045;-68
2021/03/06 00:36:08;;;;;;;11.73;5.27;;;2.80;80.90;;;;;;5073614;28;20049;-68
2021/03/06 00:38:34;;;;;;;10.20;4.27;;;2.80;80.90;;;;;;5074771;28;20373;-68
2021/03/06 00:40:59;;;;;;;9.53;4.10;;;2.90;81.00;;;;;;5073509;28;20049;-68
2021/03/06 00:43:25;;;;;;;8.57;4.43;;;2.90;80.80;;;;;;5074217;28;20074;-69
2021/03/06 00:45:51;;;;;;;8.37;4.00;;;3.00;80.80;;;;;;5074375;28;20131;-68
2021/03/06 00:48:17;;;;;;;10.30;3.90;;;3.00;81.60;;;;;;5073566;28;20389;-68
2021/03/06 00:50:42;;;;;;;9.93;3.83;;;3.00;80.60;;;;;;5074284;28;20049;-68
2021/03/06 00:53:08;;;;;;;10.43;3.30;;;3.00;80.70;;;;;;5073887;28;20098;-68
2021/03/06 00:55:34;;;;;;;11.83;4.07;;;3.00;80.70;;;;;;5073699;28;20048;-69
2021/03/06 00:57:59;;;;;;;12.93;4.27;;;3.00;80.70;;;;;;5074038;28;20055;-69
2021/03/06 01:00:25;;;;;;;8.83;3.97;;;3.00;80.60;;;;;;5074229;28;20081;-69
2021/03/06 01:02:51;;;;;;;9.63;3.60;;;2.90;80.70;;;;;;5073326;28;20537;-69
2021/03/06 01:05:16;;;;;;;8.37;3.90;;;2.90;80.80;;;;;;5074036;28;20071;-69
2021/03/06 01:07:43;;;;;;;8.93;3.33;;;2.80;80.90;;;;;;5073968;28;20060;-69
2021/03/06 01:10:21;;;;;;;10.13;3.20;;;2.80;81.00;;;;;;5072910;28;20055;-69
2021/03/06 01:12:47;;;;;;;8.97;3.23;;;2.80;81.00;;;;;;5073945;28;20310;-69
2021/03/06 01:15:13;;;;;;;10.43;3.90;;;2.80;80.90;;;;;;5073914;28;20310;-69
2021/03/06 01:17:39;;;;;;;10.40;3.57;;;2.80;80.80;;;;;;5073081;28;20481;-69
2021/03/06 01:20:06;;;;;;;10.30;3.60;;;2.90;81.10;;;;;;5073709;28;20394;-69
2021/03/06 01:22:32;;;;;;;9.70;3.80;;;2.90;81.00;;;;;;5072835;28;20067;-69
2021/03/06 01:24:58;;;;;;;6.63;3.10;;;2.90;81.00;;;;;;5072922;28;20644;-69
2021/03/06 01:27:24;;;;;;;6.83;2.90;;;2.90;81.00;;;;;;5073570;28;20800;-69
2021/03/06 01:29:49;;;;;;;10.73;4.30;;;3.00;81.20;;;;;;5073710;28;20295;-69
2021/03/06 01:32:15;;;;;;;9.73;3.53;;;3.00;81.40;;;;;;5072779;28;20464;-69
2021/03/06 01:34:40;;;;;;;8.97;4.20;;;3.00;81.40;;;;;;5073514;28;20074;-69
2021/03/06 01:37:07;;;;;;;13.77;3.77;;;3.10;81.50;;;;;;5072656;28;20070;-69
2021/03/06 01:39:33;;;;;;;9.63;3.77;;;3.10;81.50;;;;;;5073410;28;20779;-69
2021/03/06 01:41:59;;;;;;;11.77;3.73;;;3.10;81.60;;;;;;5073516;28;20067;-70
2021/03/06 01:44:24;;;;;;;9.23;3.90;;;3.10;81.70;;;;;;5072640;28;20299;-69
2021/03/06 01:46:50;;;;;;;7.03;4.03;;;3.10;81.60;;;;;;5073245;28;20056;-69
2021/03/06 01:49:16;;;;;;;11.13;3.83;;;3.10;81.60;;;;;;5073160;28;20303;-69
2021/03/06 01:51:42;;;;;;;10.37;3.90;;;3.10;81.80;;;;;;5072451;28;20130;-69
2021/03/06 01:54:10;;;;;;;12.07;3.60;;;3.20;81.80;;;;;;5072901;28;20397;-69
2021/03/06 01:56:36;;;;;;;14.27;4.10;;;3.20;81.80;;;;;;5073670;28;20123;-69
2021/03/06 01:59:03;;;;;;;17.43;4.50;;;3.20;81.80;;;;;;5072125;28;20302;-69
2021/03/06 02:01:30;;;;;;;8.67;4.27;;;3.20;81.80;;;;;;5073262;28;20307;-69
2021/03/06 02:03:58;;;;;;;14.23;3.73;;;3.10;81.90;;;;;;5072890;28;20414;-69
2021/03/06 02:06:24;;;;;;;9.67;3.80;;;3.20;82.10;;;;;;5072130;28;20322;-69
2021/03/06 02:08:50;;;;;;;10.47;4.50;;;3.20;82.20;;;;;;5072573;28;20322;-70
2021/03/06 02:11:28;;;;;;;13.33;3.67;;;3.20;82.30;;;;;;5072651;28;20295;-69
2021/03/06 02:13:53;;;;;;;7.70;3.80;;;3.20;82.20;;;;;;5071952;28;20094;-69
2021/03/06 02:16:38;;;;;;;11.03;3.20;;;3.20;82.20;;;;;;5072596;28;20298;-70
2021/03/06 02:19:27;;;;;;;10.67;4.67;;;3.20;82.20;;;;;;5072464;28;20131;-69
2021/03/06 02:22:33;;;;;;;12.90;3.97;;;3.30;82.20;;;;;;5072630;28;20291;-69
2021/03/06 02:25:17;;;;;;;12.07;4.07;;;3.30;83.00;;;;;;5072590;28;20314;-69
2021/03/06 02:28:03;;;;;;;10.90;3.53;;;3.40;82.10;;;;;;5071501;28;20373;-70
2021/03/06 02:30:30;;;;;;;10.30;4.30;;;3.40;81.80;;;;;;5072868;28;20294;-69
2021/03/06 02:32:56;;;;;;;12.83;6.27;;;3.40;81.80;;;;;;5071833;28;20862;-69
2021/03/06 02:35:25;;;;;;;15.03;3.83;;;3.50;81.80;;;;;;5071450;28;20381;-69
2021/03/06 02:38:04;;;;;;;14.67;4.23;;;3.50;81.70;;;;;;5071834;28;20702;-69
2021/03/06 02:40:31;;;;;;;11.77;4.33;;;3.50;81.80;;;;;;5071892;28;20301;-69
2021/03/06 02:42:57;;;;;;;10.53;3.57;;;3.50;81.80;;;;;;5071955;28;20664;-69
2021/03/06 02:45:24;;;;;;;13.47;3.73;;;3.50;81.80;;;;;;5072069;28;20305;-70
2021/03/06 02:47:51;;;;;;;11.47;3.90;;;3.50;81.90;;;;;;5071289;28;20337;-69
2021/03/06 02:50:17;;;;;;;13.13;4.10;;;3.60;82.10;;;;;;5071843;28;20356;-69
2021/03/06 02:52:43;;;;;;;11.87;4.40;;;3.60;83.00;;;;;;5072117;28;20422;-69
2021/03/06 02:55:10;;;;;;;13.20;3.90;;;3.60;82.00;;;;;;5071275;28;20049;-70
2021/03/06 02:57:59;;;;;;;8.77;3.97;;;3.60;82.10;;;;;;5072168;28;20097;-69
2021/03/06 03:00:39;;;;;;;10.40;4.10;;;3.60;82.10;;;;;;5071796;28;20283;-69
2021/03/06 03:03:38;;;;;;;12.80;4.03;;;3.60;82.20;;;;;;5071159;28;20361;-70
2021/03/06 03:06:23;;;;;;;9.43;3.73;;;3.60;82.00;;;;;;5069674;28;20632;-70
2021/03/06 03:09:00;;;;;;;11.73;3.90;;;3.60;81.90;;;;;;5070855;28;20772;-70
2021/03/06 03:11:35;;;;;;;9.73;3.90;;;3.50;81.90;;;;;;5071610;28;20779;-70
2021/03/06 03:14:03;;;;;;;8.33;4.23;;;3.50;81.90;;;;;;5071804;28;20324;-70
2021/03/06 03:16:47;;;;;;;8.37;3.60;;;3.50;81.90;;;;;;5071434;28;20287;-69
2021/03/06 03:19:22;;;;;;;8.77;4.20;;;3.60;82.10;;;;;;5071502;28;20305;-69
2021/03/06 03:21:51;;;;;;;12.00;4.17;;;3.60;81.90;;;;;;5071345;28;20298;-69
2021/03/06 03:24:19;;;;;;;11.03;3.77;;;3.60;81.90;;;;;;5070816;28;20299;-69
2021/03/06 03:26:47;;;;;;;6.63;3.20;;;3.60;82.00;;;;;;5071552;28;20298;-70
2021/03/06 03:29:14;;;;;;;8.50;3.13;;;3.60;82.10;;;;;;5071353;28;20331;-70
2021/03/06 03:31:44;;;;;;;6.03;3.03;;;3.60;81.90;;;;;;5070666;28;20303;-68
2021/03/06 03:34:10;;;;;;;11.80;3.20;;;3.60;82.00;;;;;;5071150;28;20314;-70
2021/03/06 03:36:38;;;;;;;11.53;3.27;;;3.70;82.10;;;;;;5071508;28;20330;-68
2021/03/06 03:39:04;;;;;;;8.93;3.27;;;3.70;82.20;;;;;;5070354;28;20753;-69
2021/03/06 03:41:31;;;;;;;15.60;3.97;;;3.70;82.10;;;;;;5071619;28;20337;-68
2021/03/06 03:44:01;;;;;;;11.77;3.57;;;3.70;82.10;;;;;;5070386;28;20805;-69
2021/03/06 03:46:27;;;;;;;10.73;3.97;;;3.70;82.10;;;;;;5070801;28;20326;-68
2021/03/06 03:48:55;;;;;;;10.27;3.57;;;3.70;82.20;;;;;;5070981;28;20846;-68
2021/03/06 03:51:21;;;;;;;8.57;3.13;;;3.70;82.40;;;;;;5070512;28;20303;-68
2021/03/06 03:53:48;;;;;;;6.43;2.93;;;3.70;82.40;;;;;;5071072;28;20682;-68
2021/03/06 03:56:14;;;;;;;10.30;3.40;;;3.70;82.30;;;;;;5071052;28;20485;-69
2021/03/06 03:58:39;;;;;;;9.33;2.77;;;3.70;82.10;;;;;;5070347;28;20309;-69
2021/03/06 04:01:05;;;;;;;9.70;3.37;;;3.70;82.20;;;;;;5070980;28;20047;-69
2021/03/06 04:03:31;;;;;;;8.80;2.83;;;3.70;82.30;;;;;;5071452;28;20401;-69
2021/03/06 04:05:57;;;;;;;10.60;2.97;;;3.70;82.40;;;;;;5070413;28;20044;-69
2021/03/06 04:08:23;;;;;;;11.77;3.80;;;3.70;82.40;;;;;;5071032;28;20105;-69
2021/03/06 04:10:49;;;;;;;7.77;3.17;;;3.70;82.20;;;;;;5071005;28;20311;-69
2021/03/06 04:13:14;;;;;;;4.97;2.90;;;3.70;82.30;;;;;;5070104;28;20401;-69
2021/03/06 04:15:40;;;;;;;10.97;3.03;;;3.70;82.40;;;;;;5070877;28;20048;-69
2021/03/06 04:18:06;;;;;;;8.40;2.83;;;3.70;82.10;;;;;;5070899;28;20052;-69
2021/03/06 04:20:33;;;;;;;8.83;3.00;;;3.80;82.20;;;;;;5070338;28;20512;-69
2021/03/06 04:22:59;;;;;;;9.17;2.93;;;3.80;82.10;;;;;;5070797;28;20832;-69
2021/03/06 04:25:26;;;;;;;8.50;2.90;;;3.80;82.20;;;;;;5070743;28;20297;-69
2021/03/06 04:27:52;;;;;;;7.13;2.80;;;3.70;82.10;;;;;;5069626;28;20417;-69
2021/03/06 04:30:18;;;;;;;8.17;3.30;;;3.70;82.30;;;;;;5070771;28;20389;-69
2021/03/06 04:32:43;;;;;;;7.87;2.30;;;3.80;82.50;;;;;;5070614;28;20045;-69
2021/03/06 04:35:10;;;;;;;7.93;2.43;;;3.80;82.40;;;;;;5070202;28;20305;-69
2021/03/06 04:37:40;;;;;;;6.20;2.27;;;3.80;82.50;;;;;;5070836;28;20055;-69
2021/03/06 04:40:08;;;;;;;6.73;2.17;;;3.80;82.60;;;;;;5070068;28;20803;-69
2021/03/06 04:42:34;;;;;;;8.20;2.73;;;3.80;82.50;;;;;;5071099;28;20402;-68
2021/03/06 04:45:00;;;;;;;5.40;2.43;;;3.90;82.40;;;;;;5070497;28;20298;-68
2021/03/06 04:47:26;;;;;;;9.97;3.10;;;3.80;82.40;;;;;;5070052;28;20408;-69
2021/03/06 04:49:52;;;;;;;3.93;2.17;;;3.90;82.60;;;;;;5070777;28;20298;-69
2021/03/06 04:52:17;;;;;;;5.67;2.00;;;3.90;82.40;;;;;;5070499;28;20452;-69
2021/03/06 04:54:43;;;;;;;7.33;3.03;;;3.90;82.40;;;;;;5069960;28;20053;-69
2021/03/06 04:57:11;;;;;;;7.23;3.27;;;3.90;82.50;;;;;;5072819;28;20536;-69
2021/03/06 04:59:37;;;;;;;6.30;2.60;;;3.90;82.60;;;;;;5074380;28;20048;-68
2021/03/06 05:02:02;;;;;;;8.77;2.77;;;3.90;82.50;;;;;;5073172;28;20302;-69
2021/03/06 05:04:28;;;;;;;8.63;2.87;;;4.00;82.50;;;;;;5074356;28;20132;-68
2021/03/06 05:06:54;;;;;;;7.43;2.30;;;4.00;82.50;;;;;;5073940;28;20052;-69
2021/03/06 05:09:19;;;;;;;10.43;2.33;;;4.00;83.20;;;;;;5073240;28;20044;-68
2021/03/06 05:11:45;;;;;;;7.87;2.70;;;4.00;82.30;;;;;;5073912;28;20052;-68
2021/03/06 05:14:10;;;;;;;6.50;3.10;;;4.00;82.20;;;;;;5073579;28;20083;-68
2021/03/06 05:16:37;;;;;;;10.87;4.40;;;4.00;82.20;;;;;;5073424;28;20048;-68
2021/03/06 05:19:03;;;;;;;8.37;2.73;;;4.00;82.30;;;;;;5073509;28;20044;-68
2021/03/06 05:21:28;;;;;;;7.03;3.20;;;4.10;82.40;;;;;;5074095;28;20696;-68
2021/03/06 05:23:54;;;;;;;10.00;2.37;;;4.10;82.20;;;;;;5072947;28;20094;-68
2021/03/06 05:26:20;;;;;;;7.60;2.80;;;4.10;82.40;;;;;;5073565;28;20045;-68
2021/03/06 05:28:45;;;;;;;6.93;2.10;;;4.10;82.40;;;;;;5073463;28;20064;-69
2021/03/06 05:31:11;;;;;;;6.60;2.40;;;4.10;82.40;;;;;;5072906;28;20101;-68
2021/03/06 05:33:36;;;;;;;6.70;2.20;;;4.10;82.20;;;;;;5074010;28;20384;-68
2021/03/06 05:36:02;;;;;;;13.23;3.13;;;4.10;82.30;;;;;;5073031;28;20084;-68
2021/03/06 05:38:28;;;;;;;10.33;2.80;;;4.10;82.30;;;;;;5072764;28;20098;-68
2021/03/06 05:40:54;;;;;;;12.30;3.07;;;4.10;82.20;;;;;;5073340;28;20041;-69
2021/03/06 05:43:20;;;;;;;6.50;2.67;;;4.10;82.30;;;;;;5072325;28;20049;-69
2021/03/06 05:45:48;;;;;;;11.33;2.77;;;4.10;82.30;;;;;;5073159;28;20346;-68
2021/03/06 05:48:15;;;;;;;8.87;3.33;;;4.10;82.40;;;;;;5073295;28;20137;-68
2021/03/06 05:50:42;;;;;;;6.63;2.50;;;4.10;82.30;;;;;;5072546;28;20305;-68
2021/03/06 05:53:13;;;;;;;7.93;2.43;;;4.10;82.30;;;;;;5072967;28;20405;-69
2021/03/06 05:55:42;;;;;;;6.97;2.42;;;4.10;82.30;;;;;;5072938;28;20294;-69
2021/03/06 05:58:08;;;;;;;6.23;2.50;;;4.10;82.20;;;;;;5072183;28;20083;-69
2021/03/06 06:00:39;;;;;;;4.03;2.17;;;4.20;82.30;;;;;;5073336;28;20420;-69
2021/03/06 06:03:04;;;;;;;7.20;3.27;;;4.30;82.40;;;;;;5072883;28;20360;-69
2021/03/06 06:05:30;;;;;;;7.57;2.50;;;4.30;82.20;;;;;;5072576;28;20726;-69
2021/03/06 06:07:57;;;;;;;8.93;2.33;;;4.40;82.30;;;;;;5072354;28;20052;-69
2021/03/06 06:10:23;;;;;;;5.33;1.97;;;4.40;82.30;;;;;;5072704;28;20512;-69
2021/03/06 06:12:49;;;;;;;7.70;2.73;;;4.40;82.10;;;;;;5071735;28;20771;-70
2021/03/06 06:15:15;;;;;;;5.17;2.10;;;4.30;82.20;;;;;;5072576;28;20306;-69
2021/03/06 06:17:41;;;;;;;10.40;2.57;;;4.20;82.50;;;;;;5072311;28;20056;-70
2021/03/06 06:20:07;;;;;;;9.00;2.83;;;4.20;82.70;;;;;;5071787;28;20298;-69
2021/03/06 06:22:33;;;;;;;7.37;2.23;;;4.20;82.60;;;;;;5072618;28;20048;-69
2021/03/06 06:24:59;;;;;;;5.13;2.03;;;4.20;83.30;;;;;;5072085;28;20306;-69
2021/03/06 06:27:27;;;;;;;9.83;2.43;;;4.30;82.60;;;;;;5071588;28;20298;-69
2021/03/06 06:29:55;;;;;;;11.00;2.80;;;4.30;82.60;;;;;;5072523;28;20052;-69
2021/03/06 06:32:25;;;;;;;4.70;2.20;;;4.30;82.60;;;;;;5072191;28;20302;-70
2021/03/06 06:34:59;;;;;;;5.23;2.10;;;4.40;82.70;;;;;;5071496;28;20326;-69
2021/03/06 06:37:25;;;;;;;4.97;2.40;;;4.40;82.70;;;;;;5071620;28;20303;-69
2021/03/06 06:39:51;;;;;;;10.03;2.60;;;4.50;82.60;;;;;;5071407;28;20295;-69
2021/03/06 06:42:17;;;;;;;7.83;2.43;;;4.50;82.70;;;;;;5072085;28;20056;-69
2021/03/06 06:44:56;;;;;;;6.73;2.30;;;4.50;82.60;;;;;;5072026;28;20051;-70
2021/03/06 06:47:23;;;;;;;8.47;2.60;;;4.50;82.70;;;;;;5071162;28;20544;-69
2021/03/06 06:49:53;;;;;;;10.30;2.77;;;4.50;82.70;;;;;;5071793;28;20295;-69
2021/03/06 06:52:21;;;;;;;7.32;2.63;;;4.50;83.00;;;;;;5071956;28;20299;-69
2021/03/06 06:54:58;;;;;;;9.80;2.63;;;4.60;83.80;;;;;;5071019;28;20045;-69
2021/03/06 06:57:25;;;;;;;5.40;2.40;;;4.60;82.90;;;;;;5071761;28;20306;-70
2021/03/06 07:00:03;;;;;;;7.43;2.77;;;4.60;82.90;;;;;;5071590;28;20295;-69
2021/03/06 07:02:29;;;;;;;8.17;2.43;;;4.60;83.00;;;;;;5071235;28;20375;-69
2021/03/06 07:04:57;;;;;;;4.97;3.07;;;4.60;83.10;;;;;;5071590;28;20755;-69
2021/03/06 07:07:34;;;;;;;7.90;2.53;;;4.60;83.00;;;;;;5071599;28;20330;-69
2021/03/06 07:10:04;;;;;;;7.80;2.53;;;4.60;83.00;;;;;;5070863;28;20295;-69
2021/03/06 07:12:36;;;;;;;5.73;2.47;;;4.50;83.00;;;;;;5071696;28;20302;-69
2021/03/06 07:15:11;;;;;;;7.80;3.08;;;4.60;83.40;;;;;;5070509;28;20356;-69
2021/03/06 07:17:40;;;;;;;8.80;3.00;;;4.60;83.30;;;;;;5071942;28;20044;-69
2021/03/06 07:20:11;;;;;;;8.33;2.70;;;4.60;83.40;;;;;;5070857;28;20314;-69
2021/03/06 07:22:37;;;;;;;6.38;2.97;;;4.60;83.60;;;;;;5071218;28;20306;-69
2021/03/06 07:25:05;;;;;;;10.50;3.10;;;4.60;83.70;;;;;;5071213;28;20507;-69
2021/03/06 07:27:30;;;;;;;7.63;2.47;;;4.60;83.70;;;;;;5071416;28;20052;-69
2021/03/06 07:29:56;;;;;;;6.43;2.77;;;4.60;83.70;;;;;;5070792;28;20302;-69
2021/03/06 07:32:30;;;;;;;8.37;3.63;;;4.60;83.80;;;;;;5071196;28;20052;-69
2021/03/06 07:35:02;;;;;;;6.47;2.53;;;4.70;83.80;;;;;;5071430;28;20048;-69
2021/03/06 07:37:29;;;;;;;10.13;2.53;;;4.80;83.80;;;;;;5070811;28;20356;-69
2021/03/06 07:39:57;;;;;;;5.37;2.27;;;4.80;83.50;;;;;;5071074;28;20064;-69
2021/03/06 07:42:35;;;;;;;6.80;2.73;;;4.80;83.50;;;;;;5071320;28;20306;-69
2021/03/06 07:45:02;;;;;;;5.37;2.00;;;4.90;83.60;;;;;;5070611;28;20299;-69
2021/03/06 07:47:32;;;;;;;6.97;2.30;;;4.90;83.50;;;;;;5071624;28;20299;-69
2021/03/06 07:50:00;;;;;;;7.40;2.73;;;5.00;83.40;;;;;;5070721;28;20826;-70
2021/03/06 07:52:27;;;;;;;4.70;2.23;;;5.00;83.10;;;;;;5070832;28;20295;-69
2021/03/06 07:54:54;;;;;;;8.43;2.47;;;5.10;83.20;;;;;;5071059;28;20416;-69
2021/03/06 07:57:20;;;;;;;7.50;2.13;;;5.20;83.00;;;;;;5070485;28;20334;-69
2021/03/06 07:59:50;;;;;;;5.87;2.53;;;5.20;82.90;;;;;;5070923;28;20295;-68
2021/03/06 08:02:38;;;;;;;7.93;5.33;;;5.30;83.10;;;;;;5070879;28;20048;-69
2021/03/06 08:05:26;;;;;;;6.23;4.47;;;5.40;83.10;;;;;;5069978;28;20306;-68
2021/03/06 08:07:52;;;;;;;7.10;4.83;;;5.40;82.60;;;;;;5071052;28;20305;-69
2021/03/06 08:10:18;;;;;;;9.70;2.43;;;5.40;82.60;;;;;;5070918;28;20299;-69
2021/03/06 08:12:43;;;;;;;5.03;3.47;;;5.40;82.70;;;;;;5070039;28;20321;-69
2021/03/06 08:15:28;;;;;;;4.13;2.17;;;5.40;82.80;;;;;;5070741;28;20558;-69
2021/03/06 08:17:56;;;;;;;6.17;2.93;;;5.50;83.00;;;;;;5071033;28;20105;-68
2021/03/06 08:20:24;;;;;;;38.30;35.97;;;5.60;83.00;;;;;;5070340;28;20667;-68
2021/03/06 08:23:19;;;;;;;6.17;2.50;;;5.90;83.30;;;;;;5070766;28;20297;-68
2021/03/06 08:25:47;;;;;;;5.27;1.77;;;6.50;82.90;;;;;;5069922;28;20304;-68
2021/03/06 08:28:27;;;;;;;2.37;1.73;;;6.70;81.50;;;;;;5070601;28;20420;-68
2021/03/06 08:30:54;;;;;;;3.93;1.30;;;6.80;80.60;;;;;;5071186;28;20306;-69
2021/03/06 08:33:20;;;;;;;7.33;1.90;;;6.80;80.50;;;;;;5073570;28;20408;-69
2021/03/06 08:35:47;;;;;;;3.70;1.40;;;6.80;80.30;;;;;;5074549;28;20302;-69
2021/03/06 08:38:29;;;;;;;3.77;1.40;;;6.80;80.30;;;;;;5074278;28;20311;-69
2021/03/06 08:40:56;;;;;;;3.60;1.37;;;7.00;80.30;;;;;;5073670;28;20295;-68
2021/03/06 08:43:22;;;;;;;4.07;1.50;;;7.30;79.70;;;;;;5074372;28;20323;-68
2021/03/06 08:45:47;;;;;;;4.00;1.50;;;7.50;79.30;;;;;;5074023;28;20860;-69
2021/03/06 08:48:14;;;;;;;4.43;1.63;;;7.70;78.50;;;;;;5073325;28;20075;-68
2021/03/06 08:50:42;;;;;;;7.03;1.40;;;7.90;77.80;;;;;;5073869;28;20461;-69
2021/03/06 08:53:12;;;;;;;6.20;1.60;;;8.10;77.20;;;;;;5074114;28;20709;-69
2021/03/06 08:55:40;;;;;;;5.37;2.00;;;8.10;76.90;;;;;;5074436;28;20317;-68
2021/03/06 08:58:17;;;;;;;6.40;3.17;;;8.10;76.70;;;;;;5074013;28;20294;-69
2021/03/06 09:00:48;;;;;;;4.80;1.60;;;7.90;76.50;;;;;;5073181;28;20293;-68
2021/03/06 09:03:15;;;;;;;6.03;2.35;;;7.80;76.90;;;;;;5073805;28;20718;-68
2021/03/06 09:05:43;;;;;;;5.23;1.13;;;7.80;76.70;;;;;;5074007;28;20106;-69
2021/03/06 09:08:08;;;;;;;3.43;1.40;;;7.70;76.70;;;;;;5073330;28;20301;-68
2021/03/06 09:10:38;;;;;;;5.10;2.17;;;7.60;76.70;;;;;;5074238;28;20654;-68
2021/03/06 09:13:14;;;;;;;3.63;1.90;;;7.50;76.70;;;;;;5073720;28;20048;-69
2021/03/06 09:15:41;;;;;;;9.97;2.30;;;7.50;76.90;;;;;;5072586;28;20656;-68
2021/03/06 09:18:10;;;;;;;6.17;2.50;;;7.60;77.20;;;;;;5073771;28;20306;-68
2021/03/06 09:20:44;;;;;;;5.57;1.50;;;7.80;76.60;;;;;;5074085;28;20331;-68
2021/03/06 09:23:09;;;;;;;4.13;1.87;;;7.70;75.70;;;;;;5072768;28;20295;-68
2021/03/06 09:25:39;;;;;;;5.60;2.30;;;7.70;76.00;;;;;;5073774;28;20314;-69
2021/03/06 09:28:10;;;;;;;4.73;1.43;;;7.70;76.20;;;;;;5073616;28;20033;-69
2021/03/06 09:30:39;;;;;;;3.90;1.73;;;7.70;76.40;;;;;;5073448;28;20366;-68
2021/03/06 09:33:30;;;;;;;5.87;1.93;;;7.60;76.30;;;;;;5073505;28;20079;-68
2021/03/06 09:36:02;;;;;;;4.77;1.50;;;7.60;76.00;;;;;;5072373;28;20291;-69
2021/03/06 09:38:28;;;;;;;4.95;1.77;;;7.50;76.10;;;;;;5073366;28;20647;-68
2021/03/06 09:40:54;;;;;;;6.70;2.07;;;7.40;76.20;;;;;;5072883;28;20489;-69
2021/03/06 09:43:33;;;;;;;3.07;1.50;;;7.40;76.30;;;;;;5071629;28;20300;-70
2021/03/06 09:46:01;;;;;;;5.20;1.40;;;7.40;76.10;;;;;;5073265;28;20309;-69
2021/03/06 09:48:28;;;;;;;7.53;1.80;;;7.50;76.20;;;;;;5073083;28;20664;-69
2021/03/06 09:50:58;;;;;;;5.43;2.03;;;7.60;76.00;;;;;;5071983;28;20818;-69
2021/03/06 09:53:26;;;;;;;5.63;2.27;;;7.60;76.80;;;;;;5072707;28;20318;-69
2021/03/06 09:56:03;;;;;;;4.93;1.83;;;7.80;75.90;;;;;;5072949;28;20322;-70
2021/03/06 09:58:28;;;;;;;5.97;2.27;;;8.00;76.20;;;;;;5072324;28;20713;-69
2021/03/06 10:01:09;;;;;;;5.37;2.00;;;8.10;75.00;;;;;;5072860;28;20314;-69
2021/03/06 10:03:35;;;;;;;4.83;2.03;;;8.10;74.70;;;;;;5072359;28;20052;-69
2021/03/06 10:06:03;;;;;;;6.23;1.73;;;8.10;74.90;;;;;;5072826;28;20305;-70
2021/03/06 10:08:32;;;;;;;6.63;2.57;;;8.20;75.90;;;;;;5073130;28;20054;-70
2021/03/06 10:10:59;;;;;;;5.70;2.03;;;8.40;75.00;;;;;;5071836;28;20283;-68
2021/03/06 10:13:25;;;;;;;5.00;2.27;;;8.60;74.60;;;;;;5072517;28;20322;-68
2021/03/06 10:15:52;;;;;;;4.87;2.03;;;8.60;74.00;;;;;;5072294;28;20814;-69
2021/03/06 10:18:19;;;;;;;6.00;1.60;;;8.70;73.70;;;;;;5071623;28;20343;-69
2021/03/06 10:20:46;;;;;;;5.40;1.80;;;8.70;73.30;;;;;;5072290;28;20639;-68
2021/03/06 10:23:12;;;;;;;7.53;1.73;;;8.80;73.20;;;;;;5072118;28;20295;-69
2021/03/06 10:25:38;;;;;;;5.53;1.30;;;8.80;73.10;;;;;;5071945;28;20868;-69
2021/03/06 10:28:09;;;;;;;3.80;1.40;;;8.80;73.20;;;;;;5072151;28;20299;-68
2021/03/06 10:30:38;;;;;;;5.07;1.47;;;8.70;73.00;;;;;;5072498;28;20127;-69
2021/03/06 10:33:05;;;;;;;5.03;1.87;;;8.70;73.40;;;;;;5071250;28;20063;-69
2021/03/06 10:35:48;;;;;;;2.23;1.03;;;8.60;73.50;;;;;;5072378;28;20298;-68
2021/03/06 10:38:26;;;;;;;2.37;1.20;;;8.50;73.60;;;;;;5071961;28;20822;-68
2021/03/06 10:40:55;;;;;;;3.77;0.93;;;8.50;73.40;;;;;;5071356;28;20299;-68
2021/03/06 10:43:32;;;;;;;5.00;1.40;;;8.40;73.50;;;;;;5071948;28;20310;-68
2021/03/06 10:46:12;;;;;;;3.40;1.20;;;8.40;73.50;;;;;;5071111;28;20341;-68
2021/03/06 10:48:38;;;;;;;4.27;1.40;;;8.30;73.40;;;;;;5072007;28;20299;-67
2021/03/06 10:51:04;;;;;;;4.23;1.40;;;8.30;73.80;;;;;;5071756;28;20299;-67
2021/03/06 10:53:31;;;;;;;3.90;1.00;;;8.30;73.80;;;;;;5071298;28;20318;-67
2021/03/06 10:55:57;;;;;;;3.60;1.73;;;8.50;73.40;;;;;;5071767;28;20299;-68
2021/03/06 10:58:42;;;;;;;3.47;1.17;;;8.60;73.30;;;;;;5071546;28;20397;-68
2021/03/06 11:01:09;;;;;;;3.23;1.00;;;8.70;72.20;;;;;;5070579;28;20059;-68
2021/03/06 11:03:42;;;;;;;2.97;1.13;;;8.70;72.10;;;;;;5071755;28;20109;-69
2021/03/06 11:06:08;;;;;;;2.20;1.00;;;8.70;71.70;;;;;;5071454;28;20321;-68
2021/03/06 11:08:34;;;;;;;5.87;1.30;;;8.60;71.70;;;;;;5071298;28;20761;-68
2021/03/06 11:10:59;;;;;;;2.97;1.40;;;8.60;71.70;;;;;;5071516;28;20457;-68
2021/03/06 11:13:44;;;;;;;2.40;0.70;;;8.70;71.40;;;;;;5071388;28;20054;-69
2021/03/06 11:16:11;;;;;;;2.53;0.70;;;8.80;70.60;;;;;;5070800;28;20048;-70
2021/03/06 11:18:40;;;;;;;3.27;0.90;;;9.10;70.70;;;;;;5071404;28;20446;-69
2021/03/06 11:21:11;;;;;;;2.87;0.97;;;9.30;70.20;;;;;;5070367;28;20771;-70
2021/03/06 11:23:38;;;;;;;2.67;1.00;;;9.40;69.60;;;;;;5071818;28;20138;-70
2021/03/06 11:26:04;;;;;;;4.37;1.30;;;9.50;69.10;;;;;;5071429;28;20048;-69
2021/03/06 11:28:30;;;;;;;2.70;0.87;;;9.40;68.30;;;;;;5070828;28;20456;-69
2021/03/06 11:30:56;;;;;;;3.57;0.87;;;9.30;68.30;;;;;;5070968;28;20044;-69
2021/03/06 11:33:22;;;;;;;1.67;0.73;;;9.10;68.30;;;;;;5070972;28;20052;-69
2021/03/06 11:35:49;;;;;;;2.23;0.70;;;8.80;67.40;;;;;;5069973;28;20041;-69
2021/03/06 11:38:17;;;;;;;3.13;0.87;;;8.40;68.30;;;;;;5070468;28;20388;-68
2021/03/06 11:40:48;;;;;;;2.43;1.03;;;8.10;69.20;;;;;;5070947;28;20310;-68
2021/03/06 11:43:14;;;;;;;3.23;0.90;;;7.70;69.50;;;;;;5070356;28;20290;-69
2021/03/06 11:45:40;;;;;;;3.50;1.20;;;7.60;70.30;;;;;;5070688;28;20787;-68
2021/03/06 11:48:06;;;;;;;3.23;1.20;;;7.50;70.50;;;;;;5071216;28;20294;-71
2021/03/06 11:50:35;;;;;;;4.83;1.33;;;7.40;70.80;;;;;;5070657;28;20048;-69
2021/03/06 11:53:01;;;;;;;4.40;1.40;;;7.40;70.90;;;;;;5070747;28;20722;-68
2021/03/06 11:55:27;;;;;;;3.37;1.20;;;7.30;70.80;;;;;;5071239;28;20854;-69
2021/03/06 11:57:53;;;;;;;7.63;2.37;;;7.50;71.20;;;;;;5070447;28;20302;-69
2021/03/06 12:00:21;;;;;;;2.53;1.03;;;7.60;71.50;;;;;;5070954;28;20053;-68
2021/03/06 12:02:47;;;;;;;4.50;1.13;;;7.70;71.10;;;;;;5070769;28;20544;-69
2021/03/06 12:05:13;;;;;;;3.23;1.10;;;7.90;71.10;;;;;;5070469;28;20306;-68
2021/03/06 12:07:40;;;;;;;5.60;1.10;;;8.10;70.30;;;;;;5074442;28;20044;-69
2021/03/06 12:10:07;;;;;;;3.67;1.10;;;8.30;70.40;;;;;;5074633;28;20490;-70
2021/03/06 12:12:33;;;;;;;5.57;1.43;;;8.60;69.40;;;;;;5074310;28;20297;-69
2021/03/06 12:14:59;;;;;;;2.27;1.20;;;8.90;68.60;;;;;;5074274;28;20302;-70
2021/03/06 12:17:24;;;;;;;3.80;1.20;;;9.10;68.60;;;;;;5073545;28;20048;-70
2021/03/06 12:19:50;;;;;;;2.60;0.97;;;9.30;67.90;;;;;;5074776;28;20079;-70
2021/03/06 12:22:16;;;;;;;1.73;1.10;;;9.40;66.30;;;;;;5074779;28;20510;-69
2021/03/06 12:24:41;;;;;;;3.97;1.30;;;9.30;66.70;;;;;;5073825;28;20072;-69
2021/03/06 12:27:07;;;;;;;4.43;1.27;;;9.20;67.30;;;;;;5074816;28;20481;-69
2021/03/06 12:29:33;;;;;;;1.87;1.03;;;9.10;67.50;;;;;;5074813;28;20049;-69
2021/03/06 12:31:59;;;;;;;3.40;1.07;;;9.00;67.30;;;;;;5073733;28;20045;-69
2021/03/06 12:34:25;;;;;;;1.87;0.90;;;8.80;67.60;;;;;;5074628;28;20310;-70
2021/03/06 12:36:51;;;;;;;2.47;1.37;;;8.80;68.00;;;;;;5074001;28;20057;-69
2021/03/06 12:39:17;;;;;;;2.13;0.87;;;8.80;68.00;;;;;;5073551;28;20425;-69
2021/03/06 12:41:43;;;;;;;4.07;1.10;;;8.70;68.00;;;;;;5074141;28;20094;-70
2021/03/06 12:44:09;;;;;;;2.27;0.90;;;8.60;68.20;;;;;;5073890;28;20045;-69
2021/03/06 12:46:35;;;;;;;2.73;1.00;;;8.70;68.70;;;;;;5073802;28;20322;-70
2021/03/06 12:49:01;;;;;;;2.70;1.40;;;8.70;68.80;;;;;;5074213;28;20310;-69
2021/03/06 12:51:27;;;;;;;2.90;1.00;;;8.70;68.50;;;;;;5074529;28;20295;-69
2021/03/06 12:53:53;;;;;;;4.03;1.10;;;8.70;68.40;;;;;;5073378;28;20049;-70
2021/03/06 12:56:19;;;;;;;3.97;1.53;;;8.70;68.70;;;;;;5074042;28;20075;-70
2021/03/06 12:58:45;;;;;;;4.00;1.20;;;8.70;69.50;;;;;;5074031;28;20790;-71
2021/03/06 13:01:10;;;;;;;4.50;1.20;;;8.80;69.40;;;;;;5073566;28;20090;-71
2021/03/06 13:03:36;;;;;;;3.00;1.30;;;8.70;69.40;;;;;;5074443;28;20298;-70